sensor_id;sensor_type;location;lat;lon;timestamp;pressure;altitude;pressure_sealevel;temperature;humidity
66206;BME280;53009;52.490;4.976;2024-02-21T00:03:52;156000;;;9.7;6.7
66206;BME280;53009;52.490;4.976;2024-02-21T00:08:52;156000;;;9.7;6.7
66206;BME280;53009;52.490;4.976;2024-02-21T00:13:52;156000;;;9.7;6.6
66206;BME280;53009;52.490;4.976;2024-02-21T00:18:52;156000;;;9.7;6.6
66206;BME280;53009;52.490;4.976;2024-02-21T00:23:52;156000;;;9.7;6.7
66206;BME280;53009;52.490;4.976;2024-02-21T00:28:53;155900;;;9.7;6.6
66206;BME280;53009;52.490;4.976;2024-02-21T00:33:52;156000;;;9.7;6.6
66206;BME280;53009;52.490;4.976;2024-02-21T00:38:52;155900;;;9.7;6.6
66206;BME280;53009;52.490;4.976;2024-02-21T00:43:52;156000;;;9.7;6.6
66206;BME280;53009;52.490;4.976;2024-02-21T00:48:55;155900;;;9.8;6.6
66206;BME280;53009;52.490;4.976;2024-02-21T00:53:52;155900;;;9.8;6.6
66206;BME280;53009;52.490;4.976;2024-02-21T00:58:52;155900;;;9.8;6.6
66206;BME280;53009;52.490;4.976;2024-02-21T01:03:52;155900;;;9.8;6.6
66206;BME280;53009;52.490;4.976;2024-02-21T01:08:52;155900;;;9.7;6.6
66206;BME280;53009;52.490;4.976;2024-02-21T01:13:52;155900;;;9.8;6.5
66206;BME280;53009;52.490;4.976;2024-02-21T01:18:52;155900;;;9.8;6.5
66206;BME280;53009;52.490;4.976;2024-02-21T01:23:52;155900;;;9.7;6.5
66206;BME280;53009;52.490;4.976;2024-02-21T01:28:52;155900;;;9.8;6.5
66206;BME280;53009;52.490;4.976;2024-02-21T01:33:52;155900;;;9.8;6.5
66206;BME280;53009;52.490;4.976;2024-02-21T01:38:52;155900;;;9.8;6.5
66206;BME280;53009;52.490;4.976;2024-02-21T01:43:52;155900;;;9.7;6.5
66206;BME280;53009;52.490;4.976;2024-02-21T01:48:52;155900;;;9.8;6.4
66206;BME280;53009;52.490;4.976;2024-02-21T01:53:52;155900;;;9.8;6.5
66206;BME280;53009;52.490;4.976;2024-02-21T01:58:52;155900;;;9.8;6.5
66206;BME280;53009;52.490;4.976;2024-02-21T02:03:52;155900;;;9.8;6.6
66206;BME280;53009;52.490;4.976;2024-02-21T02:08:52;155900;;;9.8;6.6
66206;BME280;53009;52.490;4.976;2024-02-21T02:13:52;155900;;;9.7;6.7
66206;BME280;53009;52.490;4.976;2024-02-21T02:18:52;155900;;;9.7;6.7
66206;BME280;53009;52.490;4.976;2024-02-21T02:23:52;155900;;;9.7;6.8
66206;BME280;53009;52.490;4.976;2024-02-21T02:28:52;155900;;;9.7;6.8
66206;BME280;53009;52.490;4.976;2024-02-21T02:33:52;155900;;;9.7;6.9
66206;BME280;53009;52.490;4.976;2024-02-21T02:38:52;155900;;;9.7;6.9
66206;BME280;53009;52.490;4.976;2024-02-21T02:43:52;155900;;;9.7;6.9
66206;BME280;53009;52.490;4.976;2024-02-21T02:48:55;155900;;;9.7;7
66206;BME280;53009;52.490;4.976;2024-02-21T02:53:52;155900;;;9.7;7
66206;BME280;53009;52.490;4.976;2024-02-21T02:58:52;155800;;;9.7;6.9
66206;BME280;53009;52.490;4.976;2024-02-21T03:03:52;155900;;;9.7;7
66206;BME280;53009;52.490;4.976;2024-02-21T03:08:52;155900;;;9.7;7.1
66206;BME280;53009;52.490;4.976;2024-02-21T03:13:52;155800;;;9.7;7.1
66206;BME280;53009;52.490;4.976;2024-02-21T03:18:52;155800;;;9.6;7.1
66206;BME280;53009;52.490;4.976;2024-02-21T03:23:52;155800;;;9.6;7.2
66206;BME280;53009;52.490;4.976;2024-02-21T03:28:52;155800;;;9.6;7.1
66206;BME280;53009;52.490;4.976;2024-02-21T03:33:52;155800;;;9.6;7.1
66206;BME280;53009;52.490;4.976;2024-02-21T03:38:55;155800;;;9.6;7.1
66206;BME280;53009;52.490;4.976;2024-02-21T03:43:52;155800;;;9.6;7.2
66206;BME280;53009;52.490;4.976;2024-02-21T03:48:52;155800;;;9.6;7.2
66206;BME280;53009;52.490;4.976;2024-02-21T03:53:52;155800;;;9.6;7.2
66206;BME280;53009;52.490;4.976;2024-02-21T03:58:52;155800;;;9.7;7.2
66206;BME280;53009;52.490;4.976;2024-02-21T04:03:52;155800;;;9.6;7.2
66206;BME280;53009;52.490;4.976;2024-02-21T04:08:52;155800;;;9.7;7.2
66206;BME280;53009;52.490;4.976;2024-02-21T04:13:52;155800;;;9.7;7.2
66206;BME280;53009;52.490;4.976;2024-02-21T04:18:52;155800;;;9.7;7.1
66206;BME280;53009;52.490;4.976;2024-02-21T04:23:54;155800;;;9.7;7.1
66206;BME280;53009;52.490;4.976;2024-02-21T04:28:52;155800;;;9.7;7.1
66206;BME280;53009;52.490;4.976;2024-02-21T04:33:52;155800;;;9.7;7.2
66206;BME280;53009;52.490;4.976;2024-02-21T04:38:52;155800;;;9.7;7.1
66206;BME280;53009;52.490;4.976;2024-02-21T04:43:52;155800;;;9.7;7.1
66206;BME280;53009;52.490;4.976;2024-02-21T04:48:52;155800;;;9.7;7.1
66206;BME280;53009;52.490;4.976;2024-02-21T04:53:52;155800;;;9.7;7
66206;BME280;53009;52.490;4.976;2024-02-21T04:58:52;155800;;;9.7;7.1
66206;BME280;53009;52.490;4.976;2024-02-21T05:03:52;155800;;;9.7;7.1
66206;BME280;53009;52.490;4.976;2024-02-21T05:08:52;155800;;;9.7;7.1
66206;BME280;53009;52.490;4.976;2024-02-21T05:13:52;155800;;;9.7;7.1
66206;BME280;53009;52.490;4.976;2024-02-21T05:18:52;155800;;;9.7;7
66206;BME280;53009;52.490;4.976;2024-02-21T05:23:52;155800;;;9.7;7
66206;BME280;53009;52.490;4.976;2024-02-21T05:28:52;155800;;;9.7;7
66206;BME280;53009;52.490;4.976;2024-02-21T05:33:52;155800;;;9.7;6.9
66206;BME280;53009;52.490;4.976;2024-02-21T05:38:52;155800;;;9.7;6.9
66206;BME280;53009;52.490;4.976;2024-02-21T05:43:52;155800;;;9.7;6.9
66206;BME280;53009;52.490;4.976;2024-02-21T05:48:52;155800;;;9.7;7
66206;BME280;53009;52.490;4.976;2024-02-21T05:53:52;155800;;;9.7;6.8
66206;BME280;53009;52.490;4.976;2024-02-21T05:58:52;155900;;;9.7;6.8
66206;BME280;53009;52.490;4.976;2024-02-21T06:03:52;155900;;;9.7;6.7
66206;BME280;53009;52.490;4.976;2024-02-21T06:08:52;155900;;;9.7;6.7
66206;BME280;53009;52.490;4.976;2024-02-21T06:13:52;155900;;;9.6;6.7
66206;BME280;53009;52.490;4.976;2024-02-21T06:18:52;155900;;;9.6;6.7
66206;BME280;53009;52.490;4.976;2024-02-21T06:23:52;156000;;;9.6;6.7
66206;BME280;53009;52.490;4.976;2024-02-21T06:28:52;156000;;;9.6;6.7
66206;BME280;53009;52.490;4.976;2024-02-21T06:33:53;156000;;;9.6;6.6
66206;BME280;53009;52.490;4.976;2024-02-21T06:38:52;156000;;;9.6;6.7
66206;BME280;53009;52.490;4.976;2024-02-21T06:43:52;156000;;;9.6;6.6
66206;BME280;53009;52.490;4.976;2024-02-21T06:48:52;156000;;;9.6;6.6
66206;BME280;53009;52.490;4.976;2024-02-21T06:53:53;156000;;;9.6;6.6
66206;BME280;53009;52.490;4.976;2024-02-21T06:58:56;156000;;;9.6;6.7
66206;BME280;53009;52.490;4.976;2024-02-21T07:03:53;156100;;;9.6;6.6
66206;BME280;53009;52.490;4.976;2024-02-21T07:08:53;156100;;;9.6;6.6
66206;BME280;53009;52.490;4.976;2024-02-21T07:13:53;156100;;;9.5;6.6
66206;BME280;53009;52.490;4.976;2024-02-21T07:18:53;156100;;;9.6;6.6
66206;BME280;53009;52.490;4.976;2024-02-21T07:23:52;156100;;;9.6;6.5
66206;BME280;53009;52.490;4.976;2024-02-21T07:28:53;156100;;;9.6;6.5
66206;BME280;53009;52.490;4.976;2024-02-21T07:33:53;156200;;;9.7;6.4
66206;BME280;53009;52.490;4.976;2024-02-21T07:38:53;156200;;;9.7;6.4
66206;BME280;53009;52.490;4.976;2024-02-21T07:43:53;156200;;;9.7;6.3
66206;BME280;53009;52.490;4.976;2024-02-21T07:48:53;156200;;;9.7;6.3
66206;BME280;53009;52.490;4.976;2024-02-21T07:53:53;156200;;;9.7;6.3
66206;BME280;53009;52.490;4.976;2024-02-21T07:58:53;156200;;;9.7;6.2
66206;BME280;53009;52.490;4.976;2024-02-21T08:03:53;156200;;;9.7;6.3
66206;BME280;53009;52.490;4.976;2024-02-21T08:08:53;156200;;;9.8;6.3
66206;BME280;53009;52.490;4.976;2024-02-21T08:13:53;156300;;;9.8;6.2
66206;BME280;53009;52.490;4.976;2024-02-21T08:18:53;156300;;;9.8;6.2
66206;BME280;53009;52.490;4.976;2024-02-21T08:23:53;156300;;;9.9;6.2
66206;BME280;53009;52.490;4.976;2024-02-21T08:28:53;156300;;;9.9;6.2
66206;BME280;53009;52.490;4.976;2024-02-21T08:33:53;156300;;;9.8;6.2
66206;BME280;53009;52.490;4.976;2024-02-21T08:38:53;156300;;;9.8;6.2
66206;BME280;53009;52.490;4.976;2024-02-21T08:43:53;156300;;;9.9;6.2
66206;BME280;53009;52.490;4.976;2024-02-21T08:48:53;156300;;;9.9;6
66206;BME280;53009;52.490;4.976;2024-02-21T08:53:53;156300;;;10;6
66206;BME280;53009;52.490;4.976;2024-02-21T08:58:53;156300;;;10.1;5.9
66206;BME280;53009;52.490;4.976;2024-02-21T09:03:53;156300;;;10.1;5.8
66206;BME280;53009;52.490;4.976;2024-02-21T09:08:53;156300;;;10.1;5.9
66206;BME280;53009;52.490;4.976;2024-02-21T09:13:53;156100;;;10.1;5.9
66206;BME280;53009;52.490;4.976;2024-02-21T09:18:53;156100;;;10.1;5.8
66206;BME280;53009;52.490;4.976;2024-02-21T09:23:53;156200;;;10.1;5.9
66206;BME280;53009;52.490;4.976;2024-02-21T09:28:53;156200;;;10.1;5.9
66206;BME280;53009;52.490;4.976;2024-02-21T09:33:53;156200;;;10.1;5.9
66206;BME280;53009;52.490;4.976;2024-02-21T09:38:53;156200;;;10.2;5.9
66206;BME280;53009;52.490;4.976;2024-02-21T09:43:56;156200;;;10.2;5.8
66206;BME280;53009;52.490;4.976;2024-02-21T09:48:58;156200;;;10.3;5.8
66206;BME280;53009;52.490;4.976;2024-02-21T09:53:54;156200;;;10.4;5.7
66206;BME280;53009;52.490;4.976;2024-02-21T09:58:54;156300;;;10.4;5.7
66206;BME280;53009;52.490;4.976;2024-02-21T10:03:54;156200;;;10.3;5.8
66206;BME280;53009;52.490;4.976;2024-02-21T10:08:54;156200;;;10.4;5.7
66206;BME280;53009;52.490;4.976;2024-02-21T10:14:02;156200;;;10.4;5.7
66206;BME280;53009;52.490;4.976;2024-02-21T10:18:54;156200;;;10.4;5.6
66206;BME280;53009;52.490;4.976;2024-02-21T10:23:54;156200;;;10.3;5.6
66206;BME280;53009;52.490;4.976;2024-02-21T10:28:54;156200;;;10.4;5.7
66206;BME280;53009;52.490;4.976;2024-02-21T10:33:54;156200;;;10.3;5.6
66206;BME280;53009;52.490;4.976;2024-02-21T10:38:54;156200;;;10.4;5.8
66206;BME280;53009;52.490;4.976;2024-02-21T10:43:54;156200;;;10.3;5.6
66206;BME280;53009;52.490;4.976;2024-02-21T10:48:58;156200;;;10.4;5.8
66206;BME280;53009;52.490;4.976;2024-02-21T10:53:57;156200;;;10.3;5.6
66206;BME280;53009;52.490;4.976;2024-02-21T10:58:54;156200;;;10.3;5.8
66206;BME280;53009;52.490;4.976;2024-02-21T11:03:55;156200;;;10.3;5.6
66206;BME280;53009;52.490;4.976;2024-02-21T11:09:02;156200;;;10.3;5.8
66206;BME280;53009;52.490;4.976;2024-02-21T11:14:03;156200;;;10.3;5.9
66206;BME280;53009;52.490;4.976;2024-02-21T11:19:03;156200;;;10.2;5.8
66206;BME280;53009;52.490;4.976;2024-02-21T11:23:54;156200;;;10.2;5.9
66206;BME280;53009;52.490;4.976;2024-02-21T11:28:56;156200;;;10.1;5.9
66206;BME280;53009;52.490;4.976;2024-02-21T11:33:54;156200;;;10.1;5.9
66206;BME280;53009;52.490;4.976;2024-02-21T11:38:54;156200;;;10.2;5.7
66206;BME280;53009;52.490;4.976;2024-02-21T11:43:54;156200;;;10.3;5.9
66206;BME280;53009;52.490;4.976;2024-02-21T11:48:57;156200;;;10.3;5.7
66206;BME280;53009;52.490;4.976;2024-02-21T11:53:54;156200;;;10.4;5.7
66206;BME280;53009;52.490;4.976;2024-02-21T11:58:54;156200;;;10.6;5.6
66206;BME280;53009;52.490;4.976;2024-02-21T12:03:57;156200;;;10.6;5.6
66206;BME280;53009;52.490;4.976;2024-02-21T12:08:57;156200;;;10.6;5.5
66206;BME280;53009;52.490;4.976;2024-02-21T12:14:02;156200;;;10.7;5.7
66206;BME280;53009;52.490;4.976;2024-02-21T12:18:54;156200;;;10.8;5.4
66206;BME280;53009;52.490;4.976;2024-02-21T12:23:54;156200;;;10.8;5.4
66206;BME280;53009;52.490;4.976;2024-02-21T12:29:03;156100;;;10.7;5.6
66206;BME280;53009;52.490;4.976;2024-02-21T12:33:54;156100;;;10.7;5.5
66206;BME280;53009;52.490;4.976;2024-02-21T12:38:54;156100;;;10.7;5.7
66206;BME280;53009;52.490;4.976;2024-02-21T12:43:54;156100;;;10.6;5.6
66206;BME280;53009;52.490;4.976;2024-02-21T12:48:54;156100;;;10.7;5.5
66206;BME280;53009;52.490;4.976;2024-02-21T12:53:54;156100;;;10.8;5.6
66206;BME280;53009;52.490;4.976;2024-02-21T12:58:54;156100;;;10.7;5.7
66206;BME280;53009;52.490;4.976;2024-02-21T13:03:54;156100;;;10.6;5.6
66206;BME280;53009;52.490;4.976;2024-02-21T13:08:54;156100;;;10.5;5.7
66206;BME280;53009;52.490;4.976;2024-02-21T13:13:57;156100;;;10.5;5.8
66206;BME280;53009;52.490;4.976;2024-02-21T13:18:54;156100;;;10.4;5.8
66206;BME280;53009;52.490;4.976;2024-02-21T13:23:54;156100;;;10.4;5.9
66206;BME280;53009;52.490;4.976;2024-02-21T13:28:55;156100;;;10.4;5.8
66206;BME280;53009;52.490;4.976;2024-02-21T13:33:54;156100;;;10.4;5.8
66206;BME280;53009;52.490;4.976;2024-02-21T13:38:54;156100;;;10.4;5.8
66206;BME280;53009;52.490;4.976;2024-02-21T13:43:54;156200;;;10.4;5.8
66206;BME280;53009;52.490;4.976;2024-02-21T13:48:54;156200;;;10.4;5.7
66206;BME280;53009;52.490;4.976;2024-02-21T13:53:57;156200;;;10.4;6
66206;BME280;53009;52.490;4.976;2024-02-21T13:58:54;156200;;;10.3;5.9
66206;BME280;53009;52.490;4.976;2024-02-21T14:03:54;156200;;;10.3;6
66206;BME280;53009;52.490;4.976;2024-02-21T14:08:54;156200;;;10.4;5.9
66206;BME280;53009;52.490;4.976;2024-02-21T14:13:54;156200;;;10.4;6
66206;BME280;53009;52.490;4.976;2024-02-21T14:18:54;156200;;;10.4;5.8
66206;BME280;53009;52.490;4.976;2024-02-21T14:23:54;156200;;;10.4;6
66206;BME280;53009;52.490;4.976;2024-02-21T14:28:54;156200;;;10.4;5.9
66206;BME280;53009;52.490;4.976;2024-02-21T14:33:54;156200;;;10.3;5.8
66206;BME280;53009;52.490;4.976;2024-02-21T14:38:54;156200;;;10.2;5.8
66206;BME280;53009;52.490;4.976;2024-02-21T14:43:54;156200;;;10.1;5.9
66206;BME280;53009;52.490;4.976;2024-02-21T14:48:54;156200;;;10.1;6
66206;BME280;53009;52.490;4.976;2024-02-21T14:53:54;156200;;;10.1;6
66206;BME280;53009;52.490;4.976;2024-02-21T14:58:54;156200;;;10;6
66206;BME280;53009;52.490;4.976;2024-02-21T15:03:54;156200;;;10;6.2
66206;BME280;53009;52.490;4.976;2024-02-21T15:08:54;156200;;;10;6.4
66206;BME280;53009;52.490;4.976;2024-02-21T15:13:54;156200;;;9.9;6.4
66206;BME280;53009;52.490;4.976;2024-02-21T15:18:54;156200;;;9.8;6.6
66206;BME280;53009;52.490;4.976;2024-02-21T15:23:54;156100;;;9.7;6.6
66206;BME280;53009;52.490;4.976;2024-02-21T15:28:54;156100;;;9.6;6.6
66206;BME280;53009;52.490;4.976;2024-02-21T15:33:54;156100;;;9.6;6.7
66206;BME280;53009;52.490;4.976;2024-02-21T15:38:54;156100;;;9.5;7
66206;BME280;53009;52.490;4.976;2024-02-21T15:43:54;156100;;;9.5;7.1
66206;BME280;53009;52.490;4.976;2024-02-21T15:48:57;156100;;;9.5;7.1
66206;BME280;53009;52.490;4.976;2024-02-21T15:53:54;156100;;;9.5;7.1
66206;BME280;53009;52.490;4.976;2024-02-21T15:58:54;156100;;;9.5;7.2
66206;BME280;53009;52.490;4.976;2024-02-21T16:03:54;156100;;;9.5;7.3
66206;BME280;53009;52.490;4.976;2024-02-21T16:08:57;156100;;;9.4;7.3
66206;BME280;53009;52.490;4.976;2024-02-21T16:13:54;156100;;;9.4;7.5
66206;BME280;53009;52.490;4.976;2024-02-21T16:18:54;156000;;;9.4;7.7
66206;BME280;53009;52.490;4.976;2024-02-21T16:23:54;156000;;;9.5;7.6
66206;BME280;53009;52.490;4.976;2024-02-21T16:28:54;156000;;;9.4;7.7
66206;BME280;53009;52.490;4.976;2024-02-21T16:33:55;156000;;;9.4;7.8
66206;BME280;53009;52.490;4.976;2024-02-21T16:38:55;156000;;;9.4;8.1
66206;BME280;53009;52.490;4.976;2024-02-21T16:43:54;156000;;;9.4;8.1
66206;BME280;53009;52.490;4.976;2024-02-21T16:48:54;156000;;;9.4;8.2
66206;BME280;53009;52.490;4.976;2024-02-21T16:53:54;156000;;;9.4;8.4
66206;BME280;53009;52.490;4.976;2024-02-21T16:58:54;156000;;;9.4;8.4
66206;BME280;53009;52.490;4.976;2024-02-21T17:03:54;156100;;;9.4;8.4
66206;BME280;53009;52.490;4.976;2024-02-21T17:08:54;156100;;;9.3;8.6
66206;BME280;53009;52.490;4.976;2024-02-21T17:13:57;156200;;;9.3;8.6
66206;BME280;53009;52.490;4.976;2024-02-21T17:18:54;156200;;;9.3;8.7
66206;BME280;53009;52.490;4.976;2024-02-21T17:23:54;156200;;;9.3;8.8
66206;BME280;53009;52.490;4.976;2024-02-21T17:28:54;156200;;;9.3;9
66206;BME280;53009;52.490;4.976;2024-02-21T17:33:54;156200;;;9.3;9
66206;BME280;53009;52.490;4.976;2024-02-21T17:38:54;156200;;;9.3;9
66206;BME280;53009;52.490;4.976;2024-02-21T17:43:54;156300;;;9.4;9
66206;BME280;53009;52.490;4.976;2024-02-21T17:48:54;156300;;;9.3;9
66206;BME280;53009;52.490;4.976;2024-02-21T17:53:57;156300;;;9.3;9.1
66206;BME280;53009;52.490;4.976;2024-02-21T17:58:54;156300;;;9.4;9.1
66206;BME280;53009;52.490;4.976;2024-02-21T18:03:54;156300;;;9.3;9.1
66206;BME280;53009;52.490;4.976;2024-02-21T18:08:54;156300;;;9.4;9.2
66206;BME280;53009;52.490;4.976;2024-02-21T18:13:54;156300;;;9.4;9.2
66206;BME280;53009;52.490;4.976;2024-02-21T18:18:54;156400;;;9.4;9.2
66206;BME280;53009;52.490;4.976;2024-02-21T18:23:54;156400;;;9.4;9.3
66206;BME280;53009;52.490;4.976;2024-02-21T18:28:54;156400;;;9.4;9.3
66206;BME280;53009;52.490;4.976;2024-02-21T18:33:54;156400;;;9.4;9.3
66206;BME280;53009;52.490;4.976;2024-02-21T18:38:54;156400;;;9.4;9.4
66206;BME280;53009;52.490;4.976;2024-02-21T18:39:57;156300;;;9.4;9.4
66206;BME280;53009;52.490;4.976;2024-02-21T18:44:57;156300;;;9.4;9.5
66206;BME280;53009;52.490;4.976;2024-02-21T18:49:57;156400;;;9.4;9.6
66206;BME280;53009;52.490;4.976;2024-02-21T18:54:57;156400;;;9.4;9.7
66206;BME280;53009;52.490;4.976;2024-02-21T18:59:57;156400;;;9.4;9.9
66206;BME280;53009;52.490;4.976;2024-02-21T19:04:57;156400;;;9.5;10
66206;BME280;53009;52.490;4.976;2024-02-21T19:09:57;156400;;;9.5;10
66206;BME280;53009;52.490;4.976;2024-02-21T19:14:57;156400;;;9.5;10.2
66206;BME280;53009;52.490;4.976;2024-02-21T19:19:57;156400;;;9.5;10.2
66206;BME280;53009;52.490;4.976;2024-02-21T19:24:57;156400;;;9.5;10.4
66206;BME280;53009;52.490;4.976;2024-02-21T19:30:00;156400;;;9.6;10.5
66206;BME280;53009;52.490;4.976;2024-02-21T19:34:57;156400;;;9.6;10.6
66206;BME280;53009;52.490;4.976;2024-02-21T19:39:57;156400;;;9.6;10.6
66206;BME280;53009;52.490;4.976;2024-02-21T19:44:57;156400;;;9.6;10.5
66206;BME280;53009;52.490;4.976;2024-02-21T19:49:57;156400;;;9.7;10.8
66206;BME280;53009;52.490;4.976;2024-02-21T19:54:57;156400;;;9.6;10.9
66206;BME280;53009;52.490;4.976;2024-02-21T19:59:57;156400;;;9.7;11
66206;BME280;53009;52.490;4.976;2024-02-21T20:04:57;156400;;;9.7;11.1
66206;BME280;53009;52.490;4.976;2024-02-21T20:09:57;156400;;;9.7;11.1
66206;BME280;53009;52.490;4.976;2024-02-21T20:14:57;156400;;;9.7;11.1
66206;BME280;53009;52.490;4.976;2024-02-21T20:19:57;156400;;;9.7;11.3
66206;BME280;53009;52.490;4.976;2024-02-21T20:24:57;156400;;;9.7;11.3
66206;BME280;53009;52.490;4.976;2024-02-21T20:29:57;156400;;;9.7;11.4
66206;BME280;53009;52.490;4.976;2024-02-21T20:34:58;156400;;;9.7;11.5
66206;BME280;53009;52.490;4.976;2024-02-21T20:39:57;156400;;;9.7;11.6
66206;BME280;53009;52.490;4.976;2024-02-21T20:44:57;156400;;;9.8;11.6
66206;BME280;53009;52.490;4.976;2024-02-21T20:49:57;156400;;;9.7;11.6
66206;BME280;53009;52.490;4.976;2024-02-21T20:54:57;156400;;;9.8;11.7
66206;BME280;53009;52.490;4.976;2024-02-21T20:59:57;156400;;;9.8;11.8
66206;BME280;53009;52.490;4.976;2024-02-21T21:04:57;156400;;;9.8;11.7
66206;BME280;53009;52.490;4.976;2024-02-21T21:09:57;156400;;;9.8;11.8
66206;BME280;53009;52.490;4.976;2024-02-21T21:14:57;156400;;;9.8;12
66206;BME280;53009;52.490;4.976;2024-02-21T21:19:57;156400;;;9.8;12.1
66206;BME280;53009;52.490;4.976;2024-02-21T21:24:57;156400;;;9.8;12.1
66206;BME280;53009;52.490;4.976;2024-02-21T21:29:57;156300;;;9.8;12.1
66206;BME280;53009;52.490;4.976;2024-02-21T21:34:57;156300;;;9.8;12.2
66206;BME280;53009;52.490;4.976;2024-02-21T21:39:57;156300;;;9.9;12.5
66206;BME280;53009;52.490;4.976;2024-02-21T21:44:57;156300;;;9.9;12.5
66206;BME280;53009;52.490;4.976;2024-02-21T21:49:57;156300;;;9.9;12.6
66206;BME280;53009;52.490;4.976;2024-02-21T21:54:57;156300;;;9.9;12.6
66206;BME280;53009;52.490;4.976;2024-02-21T21:59:57;156300;;;10;12.5
66206;BME280;53009;52.490;4.976;2024-02-21T22:04:57;156200;;;10;12.6
66206;BME280;53009;52.490;4.976;2024-02-21T22:09:57;156200;;;10;12.7
66206;BME280;53009;52.490;4.976;2024-02-21T22:14:57;156200;;;10;12.9
66206;BME280;53009;52.490;4.976;2024-02-21T22:19:57;156200;;;10;13
66206;BME280;53009;52.490;4.976;2024-02-21T22:24:57;156200;;;10;12.9
66206;BME280;53009;52.490;4.976;2024-02-21T22:29:57;156200;;;10;12.9
66206;BME280;53009;52.490;4.976;2024-02-21T22:34:57;156200;;;10.1;13
66206;BME280;53009;52.490;4.976;2024-02-21T22:39:57;156200;;;10.1;13
66206;BME280;53009;52.490;4.976;2024-02-21T22:44:57;156200;;;10.1;13
66206;BME280;53009;52.490;4.976;2024-02-21T22:49:57;156200;;;10.1;13
66206;BME280;53009;52.490;4.976;2024-02-21T22:54:57;156200;;;10.1;12.8
66206;BME280;53009;52.490;4.976;2024-02-21T22:59:57;156200;;;10.1;13
66206;BME280;53009;52.490;4.976;2024-02-21T23:04:57;156200;;;10.2;13
66206;BME280;53009;52.490;4.976;2024-02-21T23:09:57;156200;;;10.2;13
66206;BME280;53009;52.490;4.976;2024-02-21T23:14:57;156200;;;10.2;13.2
66206;BME280;53009;52.490;4.976;2024-02-21T23:19:57;156200;;;10.2;13.4
66206;BME280;53009;52.490;4.976;2024-02-21T23:24:57;156200;;;10.3;13.6
66206;BME280;53009;52.490;4.976;2024-02-21T23:29:57;156200;;;10.3;13.6
66206;BME280;53009;52.490;4.976;2024-02-21T23:34:57;156200;;;10.4;13.9
66206;BME280;53009;52.490;4.976;2024-02-21T23:39:57;156200;;;10.4;13.9
66206;BME280;53009;52.490;4.976;2024-02-21T23:44:57;156100;;;10.4;13.9
66206;BME280;53009;52.490;4.976;2024-02-21T23:49:57;156100;;;10.4;13.9
66206;BME280;53009;52.490;4.976;2024-02-21T23:54:57;156100;;;10.4;13.9
66206;BME280;53009;52.490;4.976;2024-02-21T23:59:57;156100;;;10.4;13.9
